createdAt,value
2023-05-22T00:02:04.688Z,100.00
2023-05-22T00:04:32.402Z,100.00
2023-05-22T00:07:00.003Z,100.00
2023-05-22T00:09:27.275Z,100.00
2023-05-22T00:11:54.579Z,100.00
2023-05-22T00:14:21.771Z,100.00
2023-05-22T00:16:49.063Z,100.00
2023-05-22T00:19:16.952Z,100.00
2023-05-22T00:21:45.250Z,100.00
2023-05-22T00:24:12.828Z,100.00
2023-05-22T00:26:40.129Z,100.00
2023-05-22T00:29:07.522Z,100.00
2023-05-22T00:31:34.987Z,100.00
2023-05-22T00:34:02.443Z,100.00
2023-05-22T00:36:29.878Z,100.00
2023-05-22T00:38:57.264Z,100.00
2023-05-22T00:41:24.944Z,100.00
2023-05-22T00:43:52.234Z,100.00
2023-05-22T00:46:21.780Z,100.00
2023-05-22T00:48:49.384Z,100.00
2023-05-22T00:51:16.766Z,100.00
2023-05-22T00:53:45.125Z,100.00
2023-05-22T00:56:13.155Z,100.00
2023-05-22T00:58:41.400Z,100.00
2023-05-22T01:01:11.589Z,100.00
2023-05-22T01:03:45.087Z,100.00
2023-05-22T01:06:21.561Z,100.00
2023-05-22T01:08:48.882Z,100.00
2023-05-22T01:11:28.419Z,100.00
2023-05-22T01:14:26.140Z,100.00
2023-05-22T01:17:13.747Z,100.00
2023-05-22T01:20:01.308Z,100.00
2023-05-22T01:23:00.227Z,100.00
2023-05-22T01:25:53.073Z,100.00
2023-05-22T01:28:42.372Z,100.00
2023-05-22T01:31:15.920Z,100.00
2023-05-22T01:33:48.951Z,100.00
2023-05-22T01:36:22.478Z,100.00
2023-05-22T01:38:51.400Z,100.00
2023-05-22T01:41:19.439Z,100.00
2023-05-22T01:43:48.177Z,100.00
2023-05-22T01:46:15.547Z,100.00
2023-05-22T01:48:42.910Z,100.00
2023-05-22T01:51:38.005Z,100.00
2023-05-22T01:54:39.316Z,100.00
2023-05-22T01:57:25.008Z,100.00
2023-05-22T02:00:12.112Z,100.00
2023-05-22T02:02:53.736Z,100.00
2023-05-22T02:05:23.456Z,100.00
2023-05-22T02:07:51.457Z,100.00
2023-05-22T02:10:20.584Z,100.00
2023-05-22T02:12:48.458Z,100.00
2023-05-22T02:15:16.865Z,100.00
2023-05-22T02:17:45.628Z,100.00
2023-05-22T02:20:15.940Z,100.00
2023-05-22T02:22:47.053Z,100.00
2023-05-22T02:25:17.207Z,100.00
2023-05-22T02:27:49.893Z,100.00
2023-05-22T02:30:17.437Z,100.00
2023-05-22T02:32:47.845Z,100.00
2023-05-22T02:35:15.122Z,100.00
2023-05-22T02:37:42.395Z,100.00
2023-05-22T02:40:10.608Z,100.00
2023-05-22T02:42:38.129Z,100.00
2023-05-22T02:45:06.816Z,100.00
2023-05-22T02:47:34.113Z,100.00
2023-05-22T02:50:01.604Z,100.00
2023-05-22T02:52:31.011Z,100.00
2023-05-22T02:54:58.371Z,100.00
2023-05-22T02:57:25.925Z,100.00
2023-05-22T02:59:54.194Z,100.00
2023-05-22T03:02:21.546Z,100.00
2023-05-22T03:04:49.051Z,100.00
2023-05-22T03:07:17.204Z,100.00
2023-05-22T03:09:44.512Z,100.00
2023-05-22T03:12:12.448Z,100.00
2023-05-22T03:14:39.779Z,100.00
2023-05-22T03:17:07.075Z,100.00
2023-05-22T03:19:34.530Z,100.00
2023-05-22T03:22:02.010Z,100.00
2023-05-22T03:24:30.632Z,100.00
2023-05-22T03:26:59.479Z,100.00
2023-05-22T03:29:36.541Z,100.00
2023-05-22T03:32:04.684Z,100.00
2023-05-22T03:34:32.442Z,100.00
2023-05-22T03:37:01.046Z,100.00
2023-05-22T03:39:28.496Z,100.00
2023-05-22T03:42:14.319Z,98.54
2023-05-22T03:44:41.631Z,100.00
2023-05-22T03:47:09.040Z,96.57
2023-05-22T03:49:36.323Z,100.00
2023-05-22T03:52:05.737Z,100.00
2023-05-22T03:54:33.009Z,99.77
2023-05-22T03:57:00.850Z,94.67
2023-05-22T03:59:28.110Z,95.44
2023-05-22T04:01:58.169Z,96.28
2023-05-22T04:04:27.018Z,87.13
2023-05-22T04:06:54.457Z,85.59
2023-05-22T04:09:21.834Z,81.84
2023-05-22T04:11:49.631Z,80.36
2023-05-22T04:14:16.959Z,79.31
2023-05-22T04:16:44.271Z,78.90
2023-05-22T04:19:12.571Z,75.20
2023-05-22T04:21:39.974Z,76.67
2023-05-22T04:24:09.601Z,75.37
2023-05-22T04:26:40.459Z,69.66
2023-05-22T04:29:10.739Z,67.87
2023-05-22T04:31:38.293Z,69.24
2023-05-22T04:34:06.429Z,69.11
2023-05-22T04:36:33.740Z,67.04
2023-05-22T04:39:05.074Z,67.05
2023-05-22T04:41:32.611Z,65.25
2023-05-22T04:44:00.466Z,66.96
2023-05-22T04:46:28.856Z,66.60
2023-05-22T04:48:56.527Z,65.88
2023-05-22T04:51:23.853Z,61.18
2023-05-22T04:53:52.101Z,57.52
2023-05-22T04:56:31.829Z,57.35
2023-05-22T04:59:04.905Z,54.17
2023-05-22T05:01:35.292Z,53.29
2023-05-22T05:04:03.998Z,56.89
2023-05-22T05:06:31.542Z,55.23
2023-05-22T05:08:58.841Z,52.06
2023-05-22T05:11:26.298Z,48.88
2023-05-22T05:13:53.590Z,49.77
2023-05-22T05:16:21.126Z,49.83
2023-05-22T05:18:48.431Z,48.45
2023-05-22T05:21:15.770Z,48.83
2023-05-22T05:23:43.209Z,50.46
2023-05-22T05:26:10.576Z,48.83
2023-05-22T05:28:38.297Z,44.62
2023-05-22T05:31:07.841Z,44.59
2023-05-22T05:33:58.398Z,47.56
2023-05-22T05:36:48.702Z,44.53
2023-05-22T05:39:17.530Z,43.48
2023-05-22T05:41:44.840Z,43.48
2023-05-22T05:44:12.296Z,43.17
2023-05-22T05:46:39.773Z,42.08
2023-05-22T05:49:12.123Z,42.39
2023-05-22T05:51:41.209Z,40.56
2023-05-22T05:54:08.869Z,38.44
2023-05-22T05:56:37.722Z,38.51
2023-05-22T05:59:05.509Z,37.10
2023-05-22T06:01:53.321Z,35.97
2023-05-22T06:04:25.607Z,36.41
2023-05-22T06:06:53.840Z,37.16
2023-05-22T06:09:36.459Z,36.35
2023-05-22T06:12:12.957Z,35.62
2023-05-22T06:14:43.991Z,34.61
2023-05-22T06:17:11.287Z,35.10
2023-05-22T06:19:41.241Z,35.89
2023-05-22T06:22:08.858Z,34.63
2023-05-22T06:24:38.220Z,34.12
2023-05-22T06:27:11.778Z,34.42
2023-05-22T06:29:39.144Z,33.70
2023-05-22T06:32:07.580Z,35.02
2023-05-22T06:34:36.969Z,37.58
2023-05-22T06:37:05.925Z,37.33
2023-05-22T06:39:39.735Z,37.59
2023-05-22T06:42:11.853Z,37.89
2023-05-22T06:45:08.918Z,37.15
2023-05-22T06:47:46.662Z,37.85
2023-05-22T06:50:14.115Z,36.23
2023-05-22T06:52:41.983Z,35.86
2023-05-22T06:55:11.478Z,34.51
2023-05-22T06:57:51.623Z,34.45
2023-05-22T07:00:21.992Z,31.76
2023-05-22T07:03:12.640Z,32.57
2023-05-22T07:05:58.080Z,31.04
2023-05-22T07:08:28.369Z,30.17
2023-05-22T07:10:57.217Z,29.87
2023-05-22T07:13:25.067Z,29.60
2023-05-22T07:15:52.422Z,29.03
2023-05-22T07:18:19.752Z,29.55
2023-05-22T07:20:47.411Z,28.41
2023-05-22T07:23:18.651Z,28.43
2023-05-22T07:25:46.131Z,27.53
2023-05-22T07:28:15.322Z,27.85
2023-05-22T07:30:52.166Z,30.47
2023-05-22T07:33:19.793Z,32.88
2023-05-22T07:35:47.384Z,33.28
2023-05-22T07:38:14.860Z,33.27
2023-05-22T07:40:49.677Z,30.45
2023-05-22T07:43:17.559Z,29.19
2023-05-22T07:45:45.251Z,29.39
2023-05-22T07:48:15.334Z,28.32
2023-05-22T07:50:45.413Z,28.50
2023-05-22T07:53:12.947Z,27.15
2023-05-22T07:55:43.242Z,27.28
2023-05-22T07:58:10.928Z,29.06
2023-05-22T08:00:41.954Z,30.54
2023-05-22T08:03:09.372Z,31.74
2023-05-22T08:05:36.666Z,33.59
2023-05-22T08:08:04.829Z,31.40
2023-05-22T08:10:46.510Z,31.52
2023-05-22T08:13:16.904Z,31.80
2023-05-22T08:15:44.267Z,32.03
2023-05-22T08:18:11.875Z,32.42
2023-05-22T08:20:39.352Z,34.77
2023-05-22T08:23:06.982Z,35.95
2023-05-22T08:25:34.379Z,35.40
2023-05-22T08:28:01.663Z,37.21
2023-05-22T08:30:28.928Z,35.96
2023-05-22T08:32:56.386Z,34.67
2023-05-22T08:35:23.713Z,33.43
2023-05-22T08:37:51.092Z,33.71
2023-05-22T08:40:22.082Z,31.45
2023-05-22T08:42:54.403Z,29.72
2023-05-22T08:45:21.976Z,28.99
2023-05-22T08:47:55.356Z,27.99
2023-05-22T08:50:24.645Z,27.60
2023-05-22T08:52:52.930Z,26.92
2023-05-22T08:55:20.784Z,28.04
2023-05-22T08:57:49.539Z,27.63
2023-05-22T09:00:18.438Z,27.10
2023-05-22T09:02:47.097Z,25.82
2023-05-22T09:05:16.073Z,26.43
2023-05-22T09:07:43.816Z,25.96
2023-05-22T09:10:11.560Z,25.02
2023-05-22T09:12:38.954Z,27.91
2023-05-22T09:15:13.723Z,27.31
2023-05-22T09:17:41.544Z,26.35
2023-05-22T09:20:13.427Z,24.65
2023-05-22T09:22:40.765Z,24.86
2023-05-22T09:25:08.696Z,24.10
2023-05-22T09:27:36.467Z,24.08
2023-05-22T09:30:03.998Z,23.46
2023-05-22T09:32:31.629Z,24.04
2023-05-22T09:35:06.785Z,26.15
2023-05-22T09:37:35.875Z,25.48
2023-05-22T09:40:12.261Z,26.91
2023-05-22T09:42:39.563Z,26.30
2023-05-22T09:45:08.854Z,25.74
2023-05-22T09:47:36.395Z,26.25
2023-05-22T09:50:07.258Z,25.61
2023-05-22T09:52:37.301Z,26.29
2023-05-22T09:55:07.393Z,24.72
2023-05-22T09:57:45.157Z,23.04
2023-05-22T10:00:17.662Z,24.43
2023-05-22T10:02:50.960Z,23.86
2023-05-22T10:05:22.270Z,24.66
2023-05-22T10:08:01.773Z,24.11
2023-05-22T10:10:29.100Z,24.89
2023-05-22T10:13:05.234Z,25.17
2023-05-22T10:15:32.733Z,25.04
2023-05-22T10:18:00.774Z,25.92
2023-05-22T10:20:30.393Z,26.88
2023-05-22T10:22:57.894Z,26.26
2023-05-22T10:25:26.145Z,26.47
2023-05-22T10:27:55.003Z,27.98
2023-05-22T10:30:40.870Z,27.22
2023-05-22T10:33:39.962Z,26.56
2023-05-22T10:37:12.959Z,29.84
2023-05-22T10:40:12.019Z,30.11
2023-05-22T10:42:39.713Z,28.56
2023-05-22T10:45:10.999Z,27.37
2023-05-22T10:47:38.434Z,29.79
2023-05-22T10:50:11.247Z,27.04
2023-05-22T10:52:40.028Z,27.93
2023-05-22T10:55:11.836Z,28.54
2023-05-22T10:57:40.259Z,27.28
2023-05-22T11:00:15.196Z,28.40
2023-05-22T11:02:46.412Z,26.80
2023-05-22T11:05:21.746Z,27.86
2023-05-22T11:07:49.526Z,28.69
2023-05-22T11:10:27.260Z,30.39
2023-05-22T11:13:12.466Z,29.39
2023-05-22T11:15:45.849Z,29.86
2023-05-22T11:18:15.173Z,30.29
2023-05-22T11:20:43.992Z,31.45
2023-05-22T11:23:11.988Z,31.63
2023-05-22T11:25:42.184Z,32.84
2023-05-22T11:28:11.579Z,32.10
2023-05-22T11:30:39.954Z,34.47
2023-05-22T11:33:07.704Z,32.98
2023-05-22T11:35:35.685Z,33.61
2023-05-22T11:38:08.511Z,36.54
2023-05-22T11:40:35.957Z,35.40
2023-05-22T11:43:04.803Z,36.74
2023-05-22T11:45:32.189Z,34.26
2023-05-22T11:47:59.671Z,34.45
2023-05-22T11:50:41.144Z,39.04
2023-05-22T11:53:10.280Z,38.98
2023-05-22T11:55:37.704Z,39.02
2023-05-22T11:58:04.967Z,36.56
2023-05-22T12:00:32.657Z,35.31
2023-05-22T12:03:00.226Z,37.22
2023-05-22T12:05:27.878Z,35.20
2023-05-22T12:07:55.456Z,36.75
2023-05-22T12:10:22.994Z,37.03
2023-05-22T12:12:50.507Z,36.79
2023-05-22T12:15:21.310Z,35.19
2023-05-22T12:17:48.826Z,35.14
2023-05-22T12:20:16.614Z,38.26
2023-05-22T12:22:44.377Z,35.98
2023-05-22T12:25:20.433Z,37.59
2023-05-22T12:27:48.135Z,36.98
2023-05-22T12:30:16.777Z,38.51
2023-05-22T12:32:49.604Z,35.57
2023-05-22T12:35:18.124Z,34.55
2023-05-22T12:37:50.698Z,36.93
2023-05-22T12:40:18.485Z,35.38
2023-05-22T12:42:46.195Z,34.60
2023-05-22T12:45:14.094Z,36.43
2023-05-22T12:47:41.498Z,34.71
2023-05-22T12:50:09.369Z,36.63
2023-05-22T12:52:36.874Z,35.18
2023-05-22T12:55:04.756Z,35.22
2023-05-22T12:57:32.102Z,34.41
2023-05-22T12:59:59.426Z,35.36
2023-05-22T13:02:26.931Z,37.15
2023-05-22T13:04:54.329Z,36.37
2023-05-22T13:07:21.810Z,36.29
2023-05-22T13:09:49.175Z,36.18
2023-05-22T13:12:16.778Z,36.15
2023-05-22T13:14:44.195Z,38.92
2023-05-22T13:17:11.800Z,37.15
2023-05-22T13:19:39.252Z,36.66
2023-05-22T13:22:07.838Z,36.80
2023-05-22T13:24:35.220Z,37.85
2023-05-22T13:27:02.538Z,36.80
2023-05-22T13:29:30.089Z,36.35
2023-05-22T13:31:57.386Z,38.93
2023-05-22T13:34:25.061Z,38.01
2023-05-22T13:36:52.682Z,37.71
2023-05-22T13:39:20.046Z,36.71
2023-05-22T13:41:47.623Z,37.66
2023-05-22T13:44:14.979Z,37.06
2023-05-22T13:46:42.344Z,38.32
2023-05-22T13:49:09.650Z,37.47
2023-05-22T13:51:38.112Z,36.94
2023-05-22T13:54:05.645Z,38.33
2023-05-22T13:56:32.874Z,37.60
2023-05-22T13:59:00.444Z,36.44
2023-05-22T14:01:28.162Z,39.55
2023-05-22T14:03:55.535Z,37.76
2023-05-22T14:06:22.965Z,38.13
2023-05-22T14:08:50.570Z,37.99
2023-05-22T14:11:17.874Z,37.12
2023-05-22T14:13:45.264Z,37.38
2023-05-22T14:16:12.725Z,39.51
2023-05-22T14:18:40.272Z,39.24
2023-05-22T14:21:07.662Z,38.62
2023-05-22T14:23:35.144Z,39.92
2023-05-22T14:26:02.554Z,36.63
2023-05-22T14:28:31.882Z,38.37
2023-05-22T14:30:59.295Z,38.02
2023-05-22T14:33:26.643Z,37.27
2023-05-22T14:35:54.154Z,37.73
2023-05-22T14:38:21.388Z,38.35
2023-05-22T14:40:48.715Z,38.50
2023-05-22T14:43:16.193Z,38.80
2023-05-22T14:45:44.194Z,41.89
2023-05-22T14:48:12.891Z,41.17
2023-05-22T14:50:40.222Z,41.96
2023-05-22T14:53:07.605Z,39.81
2023-05-22T14:55:35.066Z,41.31
2023-05-22T14:58:02.361Z,40.78
2023-05-22T15:00:29.645Z,42.37
2023-05-22T15:02:57.265Z,40.68
2023-05-22T15:05:26.633Z,39.63
2023-05-22T15:07:54.679Z,40.42
2023-05-22T15:10:22.006Z,41.39
2023-05-22T15:12:49.338Z,40.32
2023-05-22T15:15:16.691Z,40.43
2023-05-22T15:17:44.188Z,41.26
2023-05-22T15:20:13.319Z,42.44
2023-05-22T15:22:40.727Z,42.12
2023-05-22T15:25:20.170Z,42.93
2023-05-22T15:27:47.530Z,40.71
2023-05-22T15:30:17.150Z,41.37
2023-05-22T15:32:44.928Z,41.98
2023-05-22T15:35:14.213Z,40.51
2023-05-22T15:37:41.934Z,38.83
2023-05-22T15:40:11.482Z,40.31
2023-05-22T15:42:38.928Z,38.85
2023-05-22T15:45:07.055Z,40.50
2023-05-22T15:47:34.470Z,41.40
2023-05-22T15:50:01.760Z,41.05
2023-05-22T15:52:29.096Z,39.68
2023-05-22T15:57:26.962Z,40.96
2023-05-22T15:59:54.512Z,42.24
2023-05-22T16:02:22.026Z,41.69
2023-05-22T16:04:49.939Z,41.98
2023-05-22T16:07:20.387Z,43.20
2023-05-22T16:09:50.131Z,43.84
2023-05-22T16:12:18.212Z,42.46
2023-05-22T16:14:45.630Z,42.31
2023-05-22T16:17:12.911Z,44.05
2023-05-22T16:19:40.126Z,43.84
2023-05-22T16:22:07.516Z,44.72
2023-05-22T16:24:34.742Z,43.24
2023-05-22T16:27:02.178Z,43.56
2023-05-22T16:29:30.507Z,42.75
2023-05-22T16:31:57.814Z,43.27
2023-05-22T16:34:25.336Z,44.89
2023-05-22T16:36:52.648Z,45.10
2023-05-22T16:39:20.232Z,45.98
2023-05-22T16:41:47.628Z,47.11
2023-05-22T16:44:14.983Z,45.75
2023-05-22T16:46:42.317Z,43.67
2023-05-22T16:49:09.693Z,43.03
2023-05-22T16:51:37.100Z,45.18
2023-05-22T16:54:04.679Z,46.08
2023-05-22T16:56:34.065Z,44.92
2023-05-22T16:59:02.150Z,45.60
2023-05-22T17:01:29.680Z,44.80
2023-05-22T17:03:57.024Z,45.32
2023-05-22T17:06:24.573Z,47.77
2023-05-22T17:08:52.043Z,45.95
2023-05-22T17:11:19.415Z,47.03
2023-05-22T17:13:46.913Z,46.75
2023-05-22T17:16:14.382Z,47.05
2023-05-22T17:18:41.910Z,48.01
2023-05-22T17:21:09.469Z,49.05
2023-05-22T17:23:37.432Z,47.40
2023-05-22T17:26:05.230Z,49.32
2023-05-22T17:28:32.761Z,51.08
2023-05-22T17:31:00.727Z,48.15
2023-05-22T17:33:28.289Z,47.49
2023-05-22T17:35:55.686Z,50.59
2023-05-22T17:38:23.120Z,50.07
2023-05-22T17:40:52.030Z,50.17
2023-05-22T17:43:19.973Z,49.74
2023-05-22T17:45:50.615Z,50.79
2023-05-22T17:48:23.725Z,51.61
2023-05-22T17:50:52.206Z,52.84
2023-05-22T17:53:21.026Z,52.32
2023-05-22T17:55:50.185Z,51.85
2023-05-22T17:58:17.899Z,51.96
2023-05-22T18:00:46.708Z,54.00
2023-05-22T18:03:14.717Z,54.75
2023-05-22T18:05:43.667Z,54.21
2023-05-22T18:08:11.276Z,54.62
2023-05-22T18:10:38.804Z,53.90
2023-05-22T18:13:06.459Z,54.14
2023-05-22T18:15:33.724Z,55.18
2023-05-22T18:18:01.135Z,56.37
2023-05-22T18:20:28.391Z,57.58
2023-05-22T18:22:56.048Z,57.58
2023-05-22T18:25:23.491Z,60.25
2023-05-22T18:27:50.747Z,59.10
2023-05-22T18:30:18.540Z,58.35
2023-05-22T18:32:46.264Z,59.05
2023-05-22T18:35:13.695Z,58.87
2023-05-22T18:37:41.558Z,59.83
2023-05-22T18:40:10.999Z,61.57
2023-05-22T18:42:39.074Z,62.57
2023-05-22T18:45:07.895Z,63.25
2023-05-22T18:47:35.362Z,60.63
2023-05-22T18:50:04.430Z,62.83
2023-05-22T18:52:31.716Z,63.88
2023-05-22T18:54:59.043Z,67.27
2023-05-22T18:57:26.308Z,67.92
2023-05-22T18:59:53.652Z,69.00
2023-05-22T19:02:22.073Z,68.56
2023-05-22T19:04:50.869Z,70.94
2023-05-22T19:07:18.448Z,69.73
2023-05-22T19:09:46.033Z,70.69
2023-05-22T19:12:13.536Z,71.12
2023-05-22T19:14:40.843Z,71.85
2023-05-22T19:17:08.231Z,73.62
2023-05-22T19:19:35.726Z,71.46
2023-05-22T19:22:03.157Z,74.29
2023-05-22T19:24:31.223Z,75.09
2023-05-22T19:26:58.560Z,76.47
2023-05-22T19:29:26.066Z,76.67
2023-05-22T19:31:53.418Z,77.45
2023-05-22T19:34:20.986Z,77.43
2023-05-22T19:36:50.421Z,78.10
2023-05-22T19:39:17.907Z,75.54
2023-05-22T19:41:45.206Z,76.03
2023-05-22T19:44:12.719Z,74.48
2023-05-22T19:46:40.160Z,74.92
2023-05-22T19:49:07.506Z,73.90
2023-05-22T19:51:34.811Z,73.68
2023-05-22T19:54:02.215Z,75.23
2023-05-22T19:56:30.434Z,76.61
2023-05-22T19:58:57.888Z,76.97
2023-05-22T20:01:25.241Z,77.58
2023-05-22T20:03:54.833Z,77.46
2023-05-22T20:06:22.862Z,79.02
2023-05-22T20:08:50.316Z,76.82
2023-05-22T20:11:17.818Z,78.16
2023-05-22T20:13:45.133Z,78.93
2023-05-22T20:16:12.902Z,80.32
2023-05-22T20:18:41.266Z,80.49
2023-05-22T20:21:09.799Z,81.12
2023-05-22T20:23:37.395Z,80.69
2023-05-22T20:26:06.005Z,80.12
2023-05-22T20:28:33.364Z,81.50
2023-05-22T20:31:00.631Z,81.97
2023-05-22T20:33:28.407Z,80.84
2023-05-22T20:35:55.894Z,81.42
2023-05-22T20:38:23.388Z,83.25
2023-05-22T20:40:51.903Z,82.03
2023-05-22T20:43:20.263Z,81.42
2023-05-22T20:45:48.129Z,81.47
2023-05-22T20:48:16.750Z,81.38
2023-05-22T20:50:47.236Z,80.85
2023-05-22T20:53:15.119Z,83.02
2023-05-22T20:55:42.783Z,83.94
2023-05-22T20:58:10.958Z,85.36
2023-05-22T21:00:41.687Z,86.26
2023-05-22T21:03:09.221Z,87.75
2023-05-22T21:05:36.793Z,90.45
2023-05-22T21:08:04.109Z,90.82
2023-05-22T21:10:31.448Z,91.24
2023-05-22T21:12:58.861Z,90.22
2023-05-22T21:15:26.402Z,91.88
2023-05-22T21:17:53.895Z,92.45
2023-05-22T21:20:21.386Z,94.24
2023-05-22T21:22:49.714Z,95.66
2023-05-22T21:25:17.341Z,94.32
2023-05-22T21:27:46.680Z,95.75
2023-05-22T21:30:15.236Z,92.54
2023-05-22T21:32:43.296Z,94.75
2023-05-22T21:35:10.751Z,95.72
2023-05-22T21:37:38.099Z,93.14
2023-05-22T21:40:06.396Z,90.70
2023-05-22T21:42:45.008Z,89.71
2023-05-22T21:45:14.548Z,93.46
2023-05-22T21:47:41.937Z,94.16
2023-05-22T21:50:10.028Z,94.04
2023-05-22T21:52:37.298Z,93.87
2023-05-22T21:55:05.085Z,96.36
2023-05-22T21:57:32.330Z,95.37
2023-05-22T21:59:59.661Z,95.01
2023-05-22T22:02:26.943Z,94.74
2023-05-22T22:04:54.325Z,95.63
2023-05-22T22:07:21.571Z,94.28
2023-05-22T22:09:49.749Z,93.97
2023-05-22T22:12:17.021Z,97.62
2023-05-22T22:14:44.321Z,98.00
2023-05-22T22:17:11.620Z,99.34
2023-05-22T22:19:40.246Z,96.12
2023-05-22T22:22:07.636Z,97.00
2023-05-22T22:24:34.984Z,98.53
2023-05-22T22:27:02.357Z,99.91
2023-05-22T22:29:29.636Z,99.53
2023-05-22T22:31:56.948Z,100.00
2023-05-22T22:34:24.449Z,100.00
2023-05-22T22:36:51.818Z,100.00
2023-05-22T22:39:19.075Z,100.00
2023-05-22T22:41:46.254Z,99.73
2023-05-22T22:44:14.013Z,99.06
2023-05-22T22:46:42.693Z,99.71
2023-05-22T22:49:10.278Z,100.00
2023-05-22T22:51:37.847Z,100.00
2023-05-22T22:54:05.478Z,100.00
2023-05-22T22:56:32.754Z,100.00
2023-05-22T22:59:00.019Z,100.00
2023-05-22T23:01:27.362Z,99.13
2023-05-22T23:03:54.789Z,98.64
2023-05-22T23:06:23.883Z,100.00
2023-05-22T23:08:51.241Z,100.00
2023-05-22T23:11:18.469Z,100.00
2023-05-22T23:13:45.978Z,100.00
2023-05-22T23:16:13.371Z,100.00
2023-05-22T23:18:40.835Z,100.00
2023-05-22T23:21:08.080Z,100.00
2023-05-22T23:23:35.398Z,100.00
2023-05-22T23:26:02.586Z,100.00
2023-05-22T23:28:29.942Z,100.00
2023-05-22T23:30:57.495Z,100.00
2023-05-22T23:33:24.729Z,100.00
2023-05-22T23:35:52.021Z,100.00
2023-05-22T23:38:19.404Z,100.00
2023-05-22T23:40:46.696Z,100.00
2023-05-22T23:43:13.989Z,100.00
2023-05-22T23:45:41.600Z,100.00
2023-05-22T23:48:09.078Z,100.00
2023-05-22T23:50:36.265Z,100.00
2023-05-22T23:53:04.080Z,100.00
2023-05-22T23:55:31.513Z,100.00
2023-05-22T23:57:58.690Z,100.00
